createdAt,value
2023-01-28T00:01:50.533Z,83.87
2023-01-28T00:04:21.032Z,84.54
2023-01-28T00:06:51.567Z,84.09
2023-01-28T00:09:22.302Z,83.93
2023-01-28T00:11:53.792Z,83.98
2023-01-28T00:14:24.189Z,84.05
2023-01-28T00:16:54.802Z,84.25
2023-01-28T00:19:25.300Z,84.63
2023-01-28T00:21:57.328Z,84.75
2023-01-28T00:24:28.322Z,84.30
2023-01-28T00:26:58.854Z,84.00
2023-01-28T00:29:29.313Z,84.36
2023-01-28T00:32:00.830Z,84.21
2023-01-28T00:34:31.287Z,84.48
2023-01-28T00:37:03.545Z,84.90
2023-01-28T00:39:34.041Z,84.66
2023-01-28T00:42:05.751Z,84.42
2023-01-28T00:44:36.535Z,84.70
2023-01-28T00:47:07.085Z,84.51
2023-01-28T00:49:37.444Z,84.91
2023-01-28T00:52:07.952Z,84.82
2023-01-28T00:54:38.543Z,84.61
2023-01-28T00:57:09.050Z,84.61
2023-01-28T00:59:39.564Z,84.85
2023-01-28T01:02:12.981Z,85.05
2023-01-28T01:04:45.292Z,84.33
2023-01-28T01:07:15.719Z,84.35
2023-01-28T01:09:47.412Z,84.82
2023-01-28T01:12:18.267Z,84.67
2023-01-28T01:14:49.039Z,84.14
2023-01-28T01:17:20.407Z,83.95
2023-01-28T01:19:50.927Z,84.03
2023-01-28T01:22:21.450Z,84.45
2023-01-28T01:24:52.207Z,84.52
2023-01-28T01:27:24.633Z,84.19
2023-01-28T01:29:56.774Z,83.27
2023-01-28T01:32:32.325Z,82.72
2023-01-28T01:35:05.592Z,82.14
2023-01-28T01:37:37.367Z,82.06
2023-01-28T01:40:09.309Z,82.18
2023-01-28T01:42:39.863Z,82.08
2023-01-28T01:45:14.566Z,81.82
2023-01-28T01:48:00.590Z,81.08
2023-01-28T01:50:34.086Z,80.69
2023-01-28T01:53:16.747Z,80.49
2023-01-28T01:55:52.745Z,80.63
2023-01-28T01:58:26.453Z,80.26
2023-01-28T02:00:57.261Z,80.01
2023-01-28T02:03:33.478Z,80.42
2023-01-28T02:06:04.732Z,79.22
2023-01-28T02:08:35.759Z,79.31
2023-01-28T02:11:09.093Z,79.19
2023-01-28T02:13:45.680Z,79.38
2023-01-28T02:16:16.815Z,78.84
2023-01-28T02:18:47.430Z,79.02
2023-01-28T02:21:26.560Z,78.77
2023-01-28T02:24:03.000Z,78.67
2023-01-28T02:27:01.027Z,78.74
2023-01-28T02:29:34.712Z,78.68
2023-01-28T02:32:08.270Z,78.10
2023-01-28T02:35:02.880Z,77.92
2023-01-28T02:37:57.621Z,78.74
2023-01-28T02:40:30.858Z,78.85
2023-01-28T02:43:01.395Z,79.54
2023-01-28T02:45:54.233Z,79.91
2023-01-28T02:48:25.210Z,79.82
2023-01-28T02:51:10.859Z,79.90
2023-01-28T02:53:50.274Z,79.81
2023-01-28T02:56:28.124Z,79.77
2023-01-28T02:59:28.367Z,80.23
2023-01-28T03:02:18.507Z,80.03
2023-01-28T03:04:55.951Z,80.12
2023-01-28T03:07:29.738Z,79.97
2023-01-28T03:10:04.421Z,80.15
2023-01-28T03:12:56.239Z,80.23
2023-01-28T03:16:05.586Z,79.20
2023-01-28T03:19:06.442Z,79.91
2023-01-28T03:21:57.773Z,78.43
2023-01-28T03:24:49.011Z,78.54
2023-01-28T03:28:01.623Z,78.85
2023-01-28T03:30:52.678Z,77.57
2023-01-28T03:33:43.071Z,77.19
2023-01-28T03:36:31.605Z,76.48
2023-01-28T03:39:02.807Z,76.24
2023-01-28T03:41:33.232Z,75.96
2023-01-28T03:44:22.762Z,76.10
2023-01-28T03:46:54.989Z,76.09
2023-01-28T03:49:27.438Z,72.01
2023-01-28T03:51:58.026Z,72.10
2023-01-28T03:54:30.236Z,73.53
2023-01-28T03:57:02.476Z,73.54
2023-01-28T03:59:34.266Z,73.60
2023-01-28T04:02:06.344Z,73.77
2023-01-28T04:04:36.885Z,73.22
2023-01-28T04:07:11.388Z,72.25
2023-01-28T04:09:41.844Z,71.12
2023-01-28T04:12:12.889Z,71.46
2023-01-28T04:14:44.277Z,71.54
2023-01-28T04:17:15.034Z,71.94
2023-01-28T04:19:45.459Z,72.03
2023-01-28T04:22:17.777Z,72.15
2023-01-28T04:24:48.376Z,72.69
2023-01-28T04:27:18.763Z,71.70
2023-01-28T04:29:50.316Z,71.57
2023-01-28T04:32:21.929Z,71.27
2023-01-28T04:34:52.451Z,71.32
2023-01-28T04:37:22.924Z,71.25
2023-01-28T04:39:53.406Z,70.95
2023-01-28T04:42:23.975Z,71.35
2023-01-28T04:44:55.051Z,71.01
2023-01-28T04:47:25.708Z,71.06
2023-01-28T04:49:56.135Z,70.43
2023-01-28T04:52:26.743Z,70.22
2023-01-28T04:54:57.139Z,70.21
2023-01-28T04:57:27.574Z,70.72
2023-01-28T04:59:59.619Z,70.10
2023-01-28T05:02:30.210Z,70.05
2023-01-28T05:05:01.631Z,70.22
2023-01-28T05:07:32.239Z,70.21
2023-01-28T05:10:02.717Z,70.87
2023-01-28T05:12:34.195Z,69.92
2023-01-28T05:15:05.018Z,69.69
2023-01-28T05:17:35.902Z,69.18
2023-01-28T05:20:07.422Z,69.64
2023-01-28T05:22:37.938Z,70.16
2023-01-28T05:25:09.463Z,70.58
2023-01-28T05:27:39.961Z,70.02
2023-01-28T05:30:12.731Z,69.81
2023-01-28T05:32:43.483Z,69.93
2023-01-28T05:35:14.303Z,68.79
2023-01-28T05:37:45.012Z,68.40
2023-01-28T05:40:16.043Z,69.49
2023-01-28T05:42:47.169Z,69.81
2023-01-28T05:45:17.710Z,70.17
2023-01-28T05:47:48.384Z,69.58
2023-01-28T05:50:19.023Z,67.85
2023-01-28T05:52:49.605Z,68.10
2023-01-28T05:55:20.916Z,68.91
2023-01-28T05:57:51.893Z,68.51
2023-01-28T06:00:22.688Z,68.26
2023-01-28T06:02:53.502Z,68.74
2023-01-28T06:05:24.306Z,68.89
2023-01-28T06:07:55.783Z,67.93
2023-01-28T06:10:26.893Z,68.47
2023-01-28T06:12:57.539Z,68.35
2023-01-28T06:15:28.165Z,69.19
2023-01-28T06:17:59.427Z,68.83
2023-01-28T06:20:29.886Z,67.61
2023-01-28T06:23:00.535Z,68.38
2023-01-28T06:25:31.451Z,69.24
2023-01-28T06:28:01.886Z,69.34
2023-01-28T06:30:32.558Z,68.38
2023-01-28T06:33:03.338Z,68.17
2023-01-28T06:35:36.338Z,67.74
2023-01-28T06:38:05.882Z,67.36
2023-01-28T06:40:36.838Z,67.75
2023-01-28T06:43:07.825Z,67.80
2023-01-28T06:45:38.366Z,67.72
2023-01-28T06:48:09.007Z,68.03
2023-01-28T06:50:39.580Z,68.41
2023-01-28T06:53:13.328Z,68.05
2023-01-28T06:55:44.074Z,68.19
2023-01-28T06:58:15.070Z,68.33
2023-01-28T07:00:45.937Z,67.77
2023-01-28T07:03:16.686Z,67.82
2023-01-28T07:05:47.348Z,67.60
2023-01-28T07:08:17.944Z,67.93
2023-01-28T07:10:49.348Z,68.40
2023-01-28T07:13:19.763Z,68.02
2023-01-28T07:15:50.649Z,68.73
2023-01-28T07:18:21.438Z,68.19
2023-01-28T07:20:51.860Z,67.72
2023-01-28T07:23:22.293Z,66.73
2023-01-28T07:25:52.852Z,65.99
2023-01-28T07:28:23.257Z,66.31
2023-01-28T07:30:54.118Z,66.12
2023-01-28T07:33:24.833Z,66.30
2023-01-28T07:35:55.375Z,66.70
2023-01-28T07:38:28.246Z,67.00
2023-01-28T07:40:58.835Z,67.26
2023-01-28T07:43:29.487Z,66.90
2023-01-28T07:46:04.427Z,67.03
2023-01-28T07:48:36.029Z,66.87
2023-01-28T07:51:07.003Z,66.43
2023-01-28T07:53:39.152Z,66.14
2023-01-28T07:56:11.917Z,65.90
2023-01-28T07:58:42.455Z,65.17
2023-01-28T08:01:14.218Z,65.78
2023-01-28T08:03:44.874Z,65.93
2023-01-28T08:06:19.125Z,66.27
2023-01-28T08:08:49.899Z,65.04
2023-01-28T08:11:21.207Z,65.34
2023-01-28T08:13:54.486Z,64.80
2023-01-28T08:16:24.905Z,64.53
2023-01-28T08:18:55.551Z,64.27
2023-01-28T08:21:26.117Z,64.58
2023-01-28T08:23:57.062Z,64.16
2023-01-28T08:26:27.693Z,63.37
2023-01-28T08:29:03.055Z,64.07
2023-01-28T08:31:33.774Z,63.74
2023-01-28T08:34:04.361Z,63.75
2023-01-28T08:36:34.872Z,63.62
2023-01-28T08:39:07.032Z,63.21
2023-01-28T08:41:38.984Z,63.45
2023-01-28T08:44:09.665Z,63.56
2023-01-28T08:46:40.145Z,63.51
2023-01-28T08:49:10.929Z,64.18
2023-01-28T08:51:41.710Z,62.96
2023-01-28T08:54:12.328Z,62.15
2023-01-28T08:56:44.968Z,63.01
2023-01-28T08:59:16.291Z,62.56
2023-01-28T09:01:49.630Z,62.66
2023-01-28T09:04:20.162Z,62.50
2023-01-28T09:06:50.623Z,62.74
2023-01-28T09:09:22.719Z,61.81
2023-01-28T09:11:53.237Z,62.34
2023-01-28T09:14:23.794Z,62.22
2023-01-28T09:16:54.384Z,62.33
2023-01-28T09:19:24.955Z,62.56
2023-01-28T09:21:55.410Z,62.58
2023-01-28T09:24:27.409Z,61.69
2023-01-28T09:26:58.060Z,60.88
2023-01-28T09:29:28.483Z,61.54
2023-01-28T09:31:59.011Z,61.82
2023-01-28T09:34:29.715Z,61.17
2023-01-28T09:37:00.231Z,61.63
2023-01-28T09:39:31.606Z,61.53
2023-01-28T09:42:09.887Z,61.05
2023-01-28T09:45:04.305Z,61.84
2023-01-28T09:47:43.736Z,61.30
2023-01-28T09:50:20.856Z,61.73
2023-01-28T09:52:54.423Z,60.87
2023-01-28T09:55:36.951Z,61.38
2023-01-28T09:58:15.072Z,61.29
2023-01-28T10:00:59.150Z,61.31
2023-01-28T10:03:44.952Z,61.11
2023-01-28T10:06:36.888Z,60.31
2023-01-28T10:09:26.283Z,60.25
2023-01-28T10:12:18.318Z,60.83
2023-01-28T10:15:00.889Z,60.01
2023-01-28T10:17:34.603Z,60.60
2023-01-28T10:20:16.270Z,60.65
2023-01-28T10:22:56.862Z,61.02
2023-01-28T10:25:31.782Z,60.63
2023-01-28T10:28:03.462Z,60.39
2023-01-28T10:30:40.457Z,60.45
2023-01-28T10:33:35.264Z,60.90
2023-01-28T10:36:07.268Z,60.98
2023-01-28T10:38:39.531Z,60.71
2023-01-28T10:41:14.254Z,60.48
2023-01-28T10:43:48.318Z,59.44
2023-01-28T10:46:34.382Z,59.86
2023-01-28T10:49:29.493Z,60.26
2023-01-28T10:52:03.744Z,60.61
2023-01-28T10:54:36.339Z,60.90
2023-01-28T10:57:13.656Z,61.25
2023-01-28T10:59:44.493Z,61.38
2023-01-28T11:02:37.283Z,61.20
2023-01-28T11:05:22.634Z,61.25
2023-01-28T11:08:04.944Z,60.96
2023-01-28T11:10:40.066Z,60.99
2023-01-28T11:13:23.530Z,61.18
2023-01-28T11:16:07.698Z,63.42
2023-01-28T11:18:52.424Z,64.51
2023-01-28T11:21:31.363Z,65.54
2023-01-28T11:24:07.487Z,66.75
2023-01-28T11:26:43.131Z,67.68
2023-01-28T11:29:26.052Z,67.57
2023-01-28T11:31:57.342Z,67.51
2023-01-28T11:34:30.540Z,67.65
2023-01-28T11:37:10.317Z,68.38
2023-01-28T11:39:40.935Z,69.22
2023-01-28T11:42:16.062Z,69.79
2023-01-28T11:44:48.414Z,70.21
2023-01-28T11:47:32.876Z,68.89
2023-01-28T11:50:19.134Z,67.42
2023-01-28T11:53:06.791Z,67.81
2023-01-28T11:55:59.340Z,69.00
2023-01-28T11:59:00.373Z,69.92
2023-01-28T12:01:33.757Z,70.20
2023-01-28T12:04:14.189Z,70.67
2023-01-28T12:07:00.629Z,70.21
2023-01-28T12:09:35.732Z,69.69
2023-01-28T12:12:44.604Z,69.79
2023-01-28T12:15:36.245Z,69.47
2023-01-28T12:18:26.444Z,68.07
2023-01-28T12:21:11.480Z,68.38
2023-01-28T12:23:56.649Z,67.95
2023-01-28T12:26:41.107Z,68.14
2023-01-28T12:29:31.853Z,69.42
2023-01-28T12:32:24.341Z,68.75
2023-01-28T12:35:31.550Z,68.96
2023-01-28T12:38:29.788Z,69.31
2023-01-28T12:41:18.531Z,69.85
2023-01-28T12:44:08.302Z,68.58
2023-01-28T12:46:47.126Z,68.12
2023-01-28T12:49:29.388Z,68.59
2023-01-28T12:52:06.175Z,69.02
2023-01-28T12:54:51.903Z,68.26
2023-01-28T12:57:32.166Z,67.19
2023-01-28T13:00:27.386Z,66.98
2023-01-28T13:03:22.572Z,66.47
2023-01-28T13:05:56.365Z,66.38
2023-01-28T13:08:29.093Z,66.08
2023-01-28T13:11:01.924Z,66.02
2023-01-28T13:13:42.376Z,65.23
2023-01-28T13:16:14.131Z,64.78
2023-01-28T13:18:49.253Z,64.43
2023-01-28T13:21:30.549Z,64.43
2023-01-28T13:24:06.892Z,64.46
2023-01-28T13:26:49.544Z,63.56
2023-01-28T13:29:23.111Z,62.85
2023-01-28T13:31:56.501Z,65.78
2023-01-28T13:34:36.431Z,67.60
2023-01-28T13:37:40.713Z,68.75
2023-01-28T13:40:17.235Z,70.71
2023-01-28T13:42:51.853Z,70.62
2023-01-28T13:45:24.791Z,69.32
2023-01-28T13:48:21.154Z,66.13
2023-01-28T13:50:55.193Z,66.28
2023-01-28T13:53:31.245Z,65.60
2023-01-28T13:56:04.614Z,65.14
2023-01-28T13:59:05.420Z,64.50
2023-01-28T14:01:43.407Z,64.05
2023-01-28T14:04:36.111Z,63.35
2023-01-28T14:07:12.562Z,63.09
2023-01-28T14:10:06.045Z,63.53
2023-01-28T14:13:08.207Z,63.35
2023-01-28T14:16:03.087Z,61.59
2023-01-28T14:18:39.323Z,62.94
2023-01-28T14:21:16.135Z,61.28
2023-01-28T14:23:49.714Z,61.30
2023-01-28T14:26:33.133Z,61.87
2023-01-28T14:29:28.026Z,62.32
2023-01-28T14:31:58.546Z,61.92
2023-01-28T14:34:37.408Z,61.92
2023-01-28T14:37:11.064Z,62.25
2023-01-28T14:39:47.820Z,62.98
2023-01-28T14:42:22.335Z,62.38
2023-01-28T14:45:20.236Z,62.69
2023-01-28T14:48:02.864Z,62.68
2023-01-28T14:51:00.695Z,63.03
2023-01-28T14:53:53.945Z,63.40
2023-01-28T14:56:35.476Z,63.69
2023-01-28T14:59:22.826Z,64.31
2023-01-28T15:01:59.446Z,63.89
2023-01-28T15:04:34.384Z,64.26
2023-01-28T15:07:20.403Z,64.13
2023-01-28T15:10:18.299Z,63.62
2023-01-28T15:13:00.645Z,63.87
2023-01-28T15:15:37.839Z,63.87
2023-01-28T15:18:19.025Z,64.09
2023-01-28T15:20:52.163Z,63.63
2023-01-28T15:23:25.811Z,63.63
2023-01-28T15:25:57.250Z,63.86
2023-01-28T15:28:33.328Z,63.20
2023-01-28T15:31:06.463Z,64.08
2023-01-28T15:33:36.759Z,64.40
2023-01-28T15:36:07.825Z,64.46
2023-01-28T15:38:40.311Z,64.65
2023-01-28T15:41:12.985Z,64.54
2023-01-28T15:43:47.883Z,65.20
2023-01-28T15:46:19.335Z,65.17
2023-01-28T15:48:56.037Z,65.07
2023-01-28T15:51:28.898Z,65.73
2023-01-28T15:54:07.918Z,65.91
2023-01-28T15:56:38.956Z,66.10
2023-01-28T15:59:19.380Z,65.92
2023-01-28T16:01:50.527Z,66.32
2023-01-28T16:04:27.540Z,66.29
2023-01-28T16:07:02.159Z,66.46
2023-01-28T16:09:34.176Z,66.56
2023-01-28T16:12:07.577Z,66.43
2023-01-28T16:14:53.770Z,65.76
2023-01-28T16:17:27.455Z,66.01
2023-01-28T16:20:01.093Z,65.83
2023-01-28T16:22:34.966Z,66.08
2023-01-28T16:25:24.653Z,66.28
2023-01-28T16:27:55.730Z,66.49
2023-01-28T16:30:28.137Z,66.54
2023-01-28T16:32:58.595Z,66.74
2023-01-28T16:35:47.356Z,67.15
2023-01-28T16:38:03.123Z,67.17
2023-01-28T16:40:35.260Z,66.92
2023-01-28T16:43:13.088Z,66.40
2023-01-28T16:45:44.555Z,66.17
2023-01-28T16:48:15.635Z,66.26
2023-01-28T16:50:47.095Z,66.61
2023-01-28T16:53:28.659Z,66.59
2023-01-28T16:56:00.461Z,66.21
2023-01-28T16:58:32.047Z,66.59
2023-01-28T17:01:02.607Z,66.10
2023-01-28T17:03:34.555Z,66.11
2023-01-28T17:06:05.568Z,66.59
2023-01-28T17:08:38.070Z,66.95
2023-01-28T17:11:08.459Z,67.17
2023-01-28T17:13:40.299Z,67.17
2023-01-28T17:16:12.553Z,67.03
2023-01-28T17:18:43.029Z,67.37
2023-01-28T17:21:13.579Z,67.64
2023-01-28T17:23:45.757Z,68.04
2023-01-28T17:26:17.142Z,68.14
2023-01-28T17:28:53.364Z,68.53
2023-01-28T17:31:27.465Z,68.38
2023-01-28T17:34:00.087Z,68.62
2023-01-28T17:36:32.593Z,68.83
2023-01-28T17:39:04.843Z,69.02
2023-01-28T17:41:35.859Z,68.94
2023-01-28T17:44:06.564Z,69.05
2023-01-28T17:46:39.483Z,68.84
2023-01-28T17:49:10.042Z,68.76
2023-01-28T17:51:40.821Z,68.68
2023-01-28T17:54:14.094Z,68.83
2023-01-28T17:56:46.770Z,68.90
2023-01-28T17:59:18.363Z,68.70
2023-01-28T18:01:50.102Z,69.22
2023-01-28T18:04:20.777Z,69.30
2023-01-28T18:06:53.784Z,69.54
2023-01-28T18:09:26.347Z,69.40
2023-01-28T18:11:58.410Z,69.61
2023-01-28T18:14:29.010Z,69.20
2023-01-28T18:17:00.953Z,69.31
2023-01-28T18:19:32.412Z,69.46
2023-01-28T18:22:03.031Z,69.05
2023-01-28T18:24:34.838Z,69.42
2023-01-28T18:27:08.142Z,69.60
2023-01-28T18:29:38.675Z,69.96
2023-01-28T18:32:12.193Z,70.08
2023-01-28T18:34:42.797Z,70.02
2023-01-28T18:37:13.230Z,69.78
2023-01-28T18:39:44.665Z,70.16
2023-01-28T18:42:16.545Z,69.77
2023-01-28T18:44:49.087Z,70.42
2023-01-28T18:47:19.427Z,69.97
2023-01-28T18:49:50.580Z,70.37
2023-01-28T18:52:21.700Z,69.61
2023-01-28T18:54:54.385Z,70.12
2023-01-28T18:57:24.914Z,70.35
2023-01-28T18:59:55.376Z,70.32
2023-01-28T19:02:26.273Z,70.14
2023-01-28T19:04:57.486Z,69.65
2023-01-28T19:07:28.287Z,69.77
2023-01-28T19:09:59.906Z,69.72
2023-01-28T19:12:31.103Z,69.72
2023-01-28T19:15:03.927Z,69.27
2023-01-28T19:17:35.850Z,69.26
2023-01-28T19:20:08.752Z,69.93
2023-01-28T19:22:42.217Z,69.61
2023-01-28T19:25:13.728Z,69.52
2023-01-28T19:27:48.000Z,69.26
2023-01-28T19:30:19.927Z,69.45
2023-01-28T19:32:50.270Z,70.20
2023-01-28T19:35:21.526Z,69.96
2023-01-28T19:37:52.265Z,69.80
2023-01-28T19:40:23.947Z,70.15
2023-01-28T19:42:56.135Z,70.04
2023-01-28T19:45:28.679Z,70.26
2023-01-28T19:47:59.064Z,70.48
2023-01-28T19:50:31.119Z,70.85
2023-01-28T19:53:01.707Z,71.11
2023-01-28T19:55:34.378Z,71.00
2023-01-28T19:58:07.477Z,71.65
2023-01-28T20:00:39.964Z,71.60
2023-01-28T20:03:10.390Z,72.29
2023-01-28T20:05:40.947Z,72.42
2023-01-28T20:08:11.699Z,72.59
2023-01-28T20:10:43.058Z,73.00
2023-01-28T20:13:14.367Z,72.95
2023-01-28T20:15:44.991Z,73.47
2023-01-28T20:18:17.595Z,73.74
2023-01-28T20:20:53.297Z,73.32
2023-01-28T20:23:25.728Z,72.80
2023-01-28T20:26:04.457Z,73.29
2023-01-28T20:28:34.899Z,73.45
2023-01-28T20:31:08.335Z,73.73
2023-01-28T20:33:40.141Z,73.73
2023-01-28T20:36:13.760Z,74.02
2023-01-28T20:38:46.511Z,73.63
2023-01-28T20:41:20.826Z,73.76
2023-01-28T20:43:53.069Z,73.72
2023-01-28T20:46:28.351Z,73.52
2023-01-28T20:49:02.984Z,73.32
2023-01-28T20:51:35.883Z,73.33
2023-01-28T20:54:09.529Z,73.72
2023-01-28T20:56:38.840Z,73.84
2023-01-28T20:59:11.791Z,73.28
2023-01-28T21:01:42.808Z,73.89
2023-01-28T21:04:14.964Z,73.62
2023-01-28T21:06:45.996Z,74.15
2023-01-28T21:09:16.384Z,74.32
2023-01-28T21:11:46.815Z,74.45
2023-01-28T21:14:17.387Z,74.87
2023-01-28T21:16:49.550Z,74.87
2023-01-28T21:19:23.047Z,74.55
2023-01-28T21:21:55.984Z,74.68
2023-01-28T21:24:27.369Z,75.13
2023-01-28T21:26:57.892Z,75.11
2023-01-28T21:29:30.000Z,74.83
2023-01-28T21:32:00.493Z,74.60
2023-01-28T21:34:31.848Z,75.13
2023-01-28T21:37:02.337Z,75.72
2023-01-28T21:39:33.062Z,75.76
2023-01-28T21:42:03.934Z,75.86
2023-01-28T21:44:35.460Z,75.99
2023-01-28T21:47:06.843Z,76.04
2023-01-28T21:49:38.164Z,76.01
2023-01-28T21:52:09.238Z,76.41
2023-01-28T21:54:39.978Z,76.16
2023-01-28T21:57:12.515Z,75.50
2023-01-28T21:59:44.334Z,75.73
2023-01-28T22:02:16.306Z,75.62
2023-01-28T22:04:58.298Z,75.83
2023-01-28T22:07:30.637Z,75.57
2023-01-28T22:10:01.030Z,75.40
2023-01-28T22:12:31.856Z,74.84
2023-01-28T22:15:02.737Z,74.58
2023-01-28T22:17:34.466Z,75.70
2023-01-28T22:20:08.742Z,76.06
2023-01-28T22:22:39.429Z,75.91
2023-01-28T22:25:10.683Z,75.89
2023-01-28T22:27:41.412Z,76.16
2023-01-28T22:30:18.554Z,76.17
2023-01-28T22:32:50.549Z,76.10
2023-01-28T22:35:22.534Z,76.31
2023-01-28T22:37:53.522Z,75.93
2023-01-28T22:40:26.136Z,75.94
2023-01-28T22:42:56.651Z,75.70
2023-01-28T22:45:27.287Z,75.54
2023-01-28T22:47:59.449Z,75.46
2023-01-28T22:50:31.537Z,75.19
2023-01-28T22:53:05.734Z,74.99
2023-01-28T22:55:37.423Z,75.22
2023-01-28T22:58:09.394Z,74.82
2023-01-28T23:00:40.335Z,74.58
2023-01-28T23:03:11.346Z,74.24
2023-01-28T23:05:41.868Z,74.00
2023-01-28T23:08:12.609Z,74.92
2023-01-28T23:10:50.099Z,74.60
2023-01-28T23:13:24.955Z,74.08
2023-01-28T23:16:13.133Z,73.97
2023-01-28T23:19:04.336Z,74.11
2023-01-28T23:21:54.663Z,75.17
2023-01-28T23:24:26.077Z,75.38
2023-01-28T23:26:58.532Z,74.82
2023-01-28T23:29:32.094Z,74.69
2023-01-28T23:32:09.759Z,74.79
2023-01-28T23:34:44.435Z,74.83
2023-01-28T23:37:15.437Z,74.98
2023-01-28T23:39:46.047Z,75.19
2023-01-28T23:42:20.609Z,74.98
2023-01-28T23:44:51.206Z,74.70
2023-01-28T23:47:21.793Z,74.45
2023-01-28T23:49:53.758Z,74.89
2023-01-28T23:52:26.512Z,74.80
2023-01-28T23:54:57.473Z,74.64
2023-01-28T23:57:28.178Z,75.24
2023-01-28T23:59:58.637Z,75.54
